sensor_id;sensor_type;location;lat;lon;timestamp;temperature;humidity
22633;DHT22;11483;55.828;37.488;2024-02-26T00:00:43;0.60;99.90
22633;DHT22;11483;55.828;37.488;2024-02-26T00:03:09;0.60;99.90
22633;DHT22;11483;55.828;37.488;2024-02-26T00:05:35;0.60;99.90
22633;DHT22;11483;55.828;37.488;2024-02-26T00:08:00;0.60;99.90
22633;DHT22;11483;55.828;37.488;2024-02-26T00:10:26;0.50;99.90
22633;DHT22;11483;55.828;37.488;2024-02-26T00:12:52;0.60;99.90
22633;DHT22;11483;55.828;37.488;2024-02-26T00:15:18;0.60;99.90
22633;DHT22;11483;55.828;37.488;2024-02-26T00:17:44;0.60;99.90
22633;DHT22;11483;55.828;37.488;2024-02-26T00:20:10;0.60;99.90
22633;DHT22;11483;55.828;37.488;2024-02-26T00:22:37;0.60;99.90
22633;DHT22;11483;55.828;37.488;2024-02-26T00:25:04;0.60;99.90
22633;DHT22;11483;55.828;37.488;2024-02-26T00:27:30;0.60;99.90
22633;DHT22;11483;55.828;37.488;2024-02-26T00:29:56;0.60;99.90
22633;DHT22;11483;55.828;37.488;2024-02-26T00:32:22;0.50;99.90
22633;DHT22;11483;55.828;37.488;2024-02-26T00:34:48;0.50;99.90
22633;DHT22;11483;55.828;37.488;2024-02-26T00:37:14;0.60;99.90
22633;DHT22;11483;55.828;37.488;2024-02-26T00:39:40;0.60;99.90
22633;DHT22;11483;55.828;37.488;2024-02-26T00:42:06;0.60;99.90
22633;DHT22;11483;55.828;37.488;2024-02-26T00:44:32;0.60;99.90
22633;DHT22;11483;55.828;37.488;2024-02-26T00:46:57;0.60;99.90
22633;DHT22;11483;55.828;37.488;2024-02-26T00:49:23;0.70;99.90
22633;DHT22;11483;55.828;37.488;2024-02-26T00:51:49;0.60;99.90
22633;DHT22;11483;55.828;37.488;2024-02-26T00:54:15;0.60;99.90
22633;DHT22;11483;55.828;37.488;2024-02-26T00:56:41;0.70;99.90
22633;DHT22;11483;55.828;37.488;2024-02-26T00:59:07;0.60;99.90
22633;DHT22;11483;55.828;37.488;2024-02-26T01:01:33;0.60;99.90
22633;DHT22;11483;55.828;37.488;2024-02-26T01:03:58;0.60;99.90
22633;DHT22;11483;55.828;37.488;2024-02-26T01:06:24;0.50;99.90
22633;DHT22;11483;55.828;37.488;2024-02-26T01:08:50;0.50;99.90
22633;DHT22;11483;55.828;37.488;2024-02-26T01:11:16;0.50;99.90
22633;DHT22;11483;55.828;37.488;2024-02-26T01:13:42;0.50;99.90
22633;DHT22;11483;55.828;37.488;2024-02-26T01:16:08;0.50;99.90
22633;DHT22;11483;55.828;37.488;2024-02-26T01:18:34;0.50;99.90
22633;DHT22;11483;55.828;37.488;2024-02-26T01:20:59;0.50;99.90
22633;DHT22;11483;55.828;37.488;2024-02-26T01:23:25;0.50;99.90
22633;DHT22;11483;55.828;37.488;2024-02-26T01:25:51;0.50;99.90
22633;DHT22;11483;55.828;37.488;2024-02-26T01:28:17;0.50;99.90
22633;DHT22;11483;55.828;37.488;2024-02-26T01:30:43;0.50;99.90
22633;DHT22;11483;55.828;37.488;2024-02-26T01:33:09;0.40;99.90
22633;DHT22;11483;55.828;37.488;2024-02-26T01:35:35;0.40;99.90
22633;DHT22;11483;55.828;37.488;2024-02-26T01:38:02;0.40;99.90
22633;DHT22;11483;55.828;37.488;2024-02-26T01:40:28;0.40;99.90
22633;DHT22;11483;55.828;37.488;2024-02-26T01:42:54;0.40;99.90
22633;DHT22;11483;55.828;37.488;2024-02-26T01:45:20;0.50;99.90
22633;DHT22;11483;55.828;37.488;2024-02-26T01:47:52;0.40;99.90
22633;DHT22;11483;55.828;37.488;2024-02-26T01:50:19;0.40;99.90
22633;DHT22;11483;55.828;37.488;2024-02-26T01:52:47;0.40;99.90
22633;DHT22;11483;55.828;37.488;2024-02-26T01:55:13;0.40;99.90
22633;DHT22;11483;55.828;37.488;2024-02-26T01:57:41;0.40;99.90
22633;DHT22;11483;55.828;37.488;2024-02-26T02:00:08;0.40;99.90
22633;DHT22;11483;55.828;37.488;2024-02-26T02:02:34;0.40;99.90
22633;DHT22;11483;55.828;37.488;2024-02-26T02:05:01;0.50;99.90
22633;DHT22;11483;55.828;37.488;2024-02-26T02:07:27;0.40;99.90
22633;DHT22;11483;55.828;37.488;2024-02-26T02:09:54;0.40;99.90
22633;DHT22;11483;55.828;37.488;2024-02-26T02:12:21;0.40;99.90
22633;DHT22;11483;55.828;37.488;2024-02-26T02:14:47;0.40;99.90
22633;DHT22;11483;55.828;37.488;2024-02-26T02:17:13;0.40;99.90
22633;DHT22;11483;55.828;37.488;2024-02-26T02:19:39;0.30;99.90
22633;DHT22;11483;55.828;37.488;2024-02-26T02:22:05;0.30;99.90
22633;DHT22;11483;55.828;37.488;2024-02-26T02:24:31;0.30;99.90
22633;DHT22;11483;55.828;37.488;2024-02-26T02:26:57;0.30;99.90
22633;DHT22;11483;55.828;37.488;2024-02-26T02:29:23;0.30;99.90
22633;DHT22;11483;55.828;37.488;2024-02-26T02:31:49;0.30;99.90
22633;DHT22;11483;55.828;37.488;2024-02-26T02:34:15;0.30;99.90
22633;DHT22;11483;55.828;37.488;2024-02-26T02:37:08;0.30;99.90
22633;DHT22;11483;55.828;37.488;2024-02-26T02:39:34;0.30;99.90
22633;DHT22;11483;55.828;37.488;2024-02-26T02:41:59;0.20;99.90
22633;DHT22;11483;55.828;37.488;2024-02-26T02:44:25;0.30;99.90
22633;DHT22;11483;55.828;37.488;2024-02-26T02:46:51;0.30;99.90
22633;DHT22;11483;55.828;37.488;2024-02-26T02:49:18;0.30;99.90
22633;DHT22;11483;55.828;37.488;2024-02-26T02:51:44;0.30;99.90
22633;DHT22;11483;55.828;37.488;2024-02-26T02:54:10;0.30;99.90
22633;DHT22;11483;55.828;37.488;2024-02-26T02:56:36;0.30;99.90
22633;DHT22;11483;55.828;37.488;2024-02-26T02:59:03;0.30;99.90
22633;DHT22;11483;55.828;37.488;2024-02-26T03:01:29;0.30;99.90
22633;DHT22;11483;55.828;37.488;2024-02-26T03:03:55;0.20;99.90
22633;DHT22;11483;55.828;37.488;2024-02-26T03:06:21;0.20;99.90
22633;DHT22;11483;55.828;37.488;2024-02-26T03:08:47;0.20;99.90
22633;DHT22;11483;55.828;37.488;2024-02-26T03:11:14;0.20;99.90
22633;DHT22;11483;55.828;37.488;2024-02-26T03:13:41;0.20;99.90
22633;DHT22;11483;55.828;37.488;2024-02-26T03:16:07;0.20;99.90
22633;DHT22;11483;55.828;37.488;2024-02-26T03:18:33;0.10;99.90
22633;DHT22;11483;55.828;37.488;2024-02-26T03:20:58;0.10;99.90
22633;DHT22;11483;55.828;37.488;2024-02-26T03:23:24;0.20;99.90
22633;DHT22;11483;55.828;37.488;2024-02-26T03:25:50;0.10;99.90
22633;DHT22;11483;55.828;37.488;2024-02-26T03:28:16;0.20;99.90
22633;DHT22;11483;55.828;37.488;2024-02-26T03:30:42;0.20;99.90
22633;DHT22;11483;55.828;37.488;2024-02-26T03:33:08;0.20;99.90
22633;DHT22;11483;55.828;37.488;2024-02-26T03:35:34;0.10;99.90
22633;DHT22;11483;55.828;37.488;2024-02-26T03:38:01;0.10;99.90
22633;DHT22;11483;55.828;37.488;2024-02-26T03:40:28;0.10;99.90
22633;DHT22;11483;55.828;37.488;2024-02-26T03:42:55;0.10;99.90
22633;DHT22;11483;55.828;37.488;2024-02-26T03:45:23;0.10;99.90
22633;DHT22;11483;55.828;37.488;2024-02-26T03:47:48;0.10;99.90
22633;DHT22;11483;55.828;37.488;2024-02-26T03:50:14;0.10;99.90
22633;DHT22;11483;55.828;37.488;2024-02-26T03:52:40;0.00;99.90
22633;DHT22;11483;55.828;37.488;2024-02-26T03:55:06;0.00;99.90
22633;DHT22;11483;55.828;37.488;2024-02-26T03:57:32;-0.10;99.90
22633;DHT22;11483;55.828;37.488;2024-02-26T03:59:58;-0.10;99.90
22633;DHT22;11483;55.828;37.488;2024-02-26T04:02:24;0.00;99.90
22633;DHT22;11483;55.828;37.488;2024-02-26T04:04:51;0.00;99.90
22633;DHT22;11483;55.828;37.488;2024-02-26T04:07:16;0.00;99.90
22633;DHT22;11483;55.828;37.488;2024-02-26T04:09:42;-0.10;99.90
22633;DHT22;11483;55.828;37.488;2024-02-26T04:12:09;-0.10;99.90
22633;DHT22;11483;55.828;37.488;2024-02-26T04:14:35;-0.10;99.90
22633;DHT22;11483;55.828;37.488;2024-02-26T04:17:02;-0.10;99.90
22633;DHT22;11483;55.828;37.488;2024-02-26T04:19:28;-0.10;99.90
22633;DHT22;11483;55.828;37.488;2024-02-26T04:21:54;-0.10;99.90
22633;DHT22;11483;55.828;37.488;2024-02-26T04:24:20;-0.20;99.90
22633;DHT22;11483;55.828;37.488;2024-02-26T04:26:46;-0.20;99.90
22633;DHT22;11483;55.828;37.488;2024-02-26T04:29:12;-0.20;99.90
22633;DHT22;11483;55.828;37.488;2024-02-26T04:31:38;-0.20;99.90
22633;DHT22;11483;55.828;37.488;2024-02-26T04:34:05;-0.30;99.90
22633;DHT22;11483;55.828;37.488;2024-02-26T04:36:30;-0.20;99.90
22633;DHT22;11483;55.828;37.488;2024-02-26T04:38:56;-0.20;99.90
22633;DHT22;11483;55.828;37.488;2024-02-26T04:41:22;-0.30;99.90
22633;DHT22;11483;55.828;37.488;2024-02-26T04:43:48;-0.20;99.90
22633;DHT22;11483;55.828;37.488;2024-02-26T04:46:14;-0.20;99.90
22633;DHT22;11483;55.828;37.488;2024-02-26T04:48:40;-0.20;99.90
22633;DHT22;11483;55.828;37.488;2024-02-26T04:51:26;-0.20;99.90
22633;DHT22;11483;55.828;37.488;2024-02-26T04:53:53;-0.10;99.90
22633;DHT22;11483;55.828;37.488;2024-02-26T04:56:21;-0.20;99.90
22633;DHT22;11483;55.828;37.488;2024-02-26T04:58:47;-0.20;99.90
22633;DHT22;11483;55.828;37.488;2024-02-26T05:01:13;-0.20;99.90
22633;DHT22;11483;55.828;37.488;2024-02-26T05:03:41;-0.20;99.90
22633;DHT22;11483;55.828;37.488;2024-02-26T05:06:08;-0.20;99.90
22633;DHT22;11483;55.828;37.488;2024-02-26T05:08:34;-0.20;99.90
22633;DHT22;11483;55.828;37.488;2024-02-26T05:11:02;-0.20;99.90
22633;DHT22;11483;55.828;37.488;2024-02-26T05:13:29;-0.30;99.90
22633;DHT22;11483;55.828;37.488;2024-02-26T05:15:55;-0.30;99.90
22633;DHT22;11483;55.828;37.488;2024-02-26T05:18:22;-0.30;99.90
22633;DHT22;11483;55.828;37.488;2024-02-26T05:20:48;-0.30;99.90
22633;DHT22;11483;55.828;37.488;2024-02-26T05:23:14;-0.30;99.90
22633;DHT22;11483;55.828;37.488;2024-02-26T05:25:39;-0.20;99.90
22633;DHT22;11483;55.828;37.488;2024-02-26T05:28:07;-0.30;99.90
22633;DHT22;11483;55.828;37.488;2024-02-26T05:30:33;-0.30;99.90
22633;DHT22;11483;55.828;37.488;2024-02-26T05:32:59;-0.30;99.90
22633;DHT22;11483;55.828;37.488;2024-02-26T05:35:25;-0.20;99.90
22633;DHT22;11483;55.828;37.488;2024-02-26T05:37:54;-0.10;99.90
22633;DHT22;11483;55.828;37.488;2024-02-26T05:40:20;-0.10;99.90
22633;DHT22;11483;55.828;37.488;2024-02-26T05:42:46;-0.20;99.90
22633;DHT22;11483;55.828;37.488;2024-02-26T05:45:12;-0.20;99.90
22633;DHT22;11483;55.828;37.488;2024-02-26T05:47:38;-0.10;99.90
22633;DHT22;11483;55.828;37.488;2024-02-26T05:50:09;-0.10;99.90
22633;DHT22;11483;55.828;37.488;2024-02-26T05:52:39;-0.10;99.90
22633;DHT22;11483;55.828;37.488;2024-02-26T05:55:05;-0.10;99.90
22633;DHT22;11483;55.828;37.488;2024-02-26T05:57:33;-0.10;99.90
22633;DHT22;11483;55.828;37.488;2024-02-26T05:59:59;-0.10;99.90
22633;DHT22;11483;55.828;37.488;2024-02-26T06:02:30;-0.10;99.90
22633;DHT22;11483;55.828;37.488;2024-02-26T06:04:56;0.00;99.90
22633;DHT22;11483;55.828;37.488;2024-02-26T06:07:22;0.10;99.90
22633;DHT22;11483;55.828;37.488;2024-02-26T06:09:48;0.10;99.90
22633;DHT22;11483;55.828;37.488;2024-02-26T06:12:14;0.10;99.90
22633;DHT22;11483;55.828;37.488;2024-02-26T06:14:41;0.00;99.90
22633;DHT22;11483;55.828;37.488;2024-02-26T06:17:07;0.10;99.90
22633;DHT22;11483;55.828;37.488;2024-02-26T06:19:33;0.00;99.90
22633;DHT22;11483;55.828;37.488;2024-02-26T06:21:58;0.10;99.90
22633;DHT22;11483;55.828;37.488;2024-02-26T06:24:24;0.10;99.90
22633;DHT22;11483;55.828;37.488;2024-02-26T06:26:50;0.20;99.90
22633;DHT22;11483;55.828;37.488;2024-02-26T06:29:16;0.30;99.90
22633;DHT22;11483;55.828;37.488;2024-02-26T06:31:42;0.20;99.90
22633;DHT22;11483;55.828;37.488;2024-02-26T06:34:08;0.20;99.90
22633;DHT22;11483;55.828;37.488;2024-02-26T06:36:35;0.30;99.90
22633;DHT22;11483;55.828;37.488;2024-02-26T06:39:01;0.30;99.90
22633;DHT22;11483;55.828;37.488;2024-02-26T06:41:28;0.30;99.90
22633;DHT22;11483;55.828;37.488;2024-02-26T06:43:55;0.30;99.90
22633;DHT22;11483;55.828;37.488;2024-02-26T06:46:22;0.30;99.90
22633;DHT22;11483;55.828;37.488;2024-02-26T06:48:49;0.30;99.90
22633;DHT22;11483;55.828;37.488;2024-02-26T06:51:15;0.30;99.90
22633;DHT22;11483;55.828;37.488;2024-02-26T06:53:41;0.30;99.90
22633;DHT22;11483;55.828;37.488;2024-02-26T06:56:07;0.40;99.90
22633;DHT22;11483;55.828;37.488;2024-02-26T06:58:32;0.40;99.90
22633;DHT22;11483;55.828;37.488;2024-02-26T07:00:58;0.50;99.90
22633;DHT22;11483;55.828;37.488;2024-02-26T07:03:24;0.60;99.90
22633;DHT22;11483;55.828;37.488;2024-02-26T07:05:51;0.70;99.90
22633;DHT22;11483;55.828;37.488;2024-02-26T07:08:18;0.60;99.90
22633;DHT22;11483;55.828;37.488;2024-02-26T07:10:44;0.60;99.90
22633;DHT22;11483;55.828;37.488;2024-02-26T07:13:10;0.60;99.90
22633;DHT22;11483;55.828;37.488;2024-02-26T07:15:36;0.70;99.90
22633;DHT22;11483;55.828;37.488;2024-02-26T07:18:01;0.80;99.90
22633;DHT22;11483;55.828;37.488;2024-02-26T07:20:30;0.80;99.90
22633;DHT22;11483;55.828;37.488;2024-02-26T07:22:56;0.90;99.90
22633;DHT22;11483;55.828;37.488;2024-02-26T07:25:23;0.90;99.90
22633;DHT22;11483;55.828;37.488;2024-02-26T07:27:50;1.00;99.90
22633;DHT22;11483;55.828;37.488;2024-02-26T07:30:16;1.00;99.90
22633;DHT22;11483;55.828;37.488;2024-02-26T07:32:43;1.20;99.90
22633;DHT22;11483;55.828;37.488;2024-02-26T07:35:10;1.40;99.90
22633;DHT22;11483;55.828;37.488;2024-02-26T07:37:36;1.40;99.90
22633;DHT22;11483;55.828;37.488;2024-02-26T07:40:02;1.40;99.90
22633;DHT22;11483;55.828;37.488;2024-02-26T07:42:28;1.50;99.90
22633;DHT22;11483;55.828;37.488;2024-02-26T07:44:54;1.60;99.90
22633;DHT22;11483;55.828;37.488;2024-02-26T07:47:21;1.60;99.90
22633;DHT22;11483;55.828;37.488;2024-02-26T07:49:47;1.70;99.90
22633;DHT22;11483;55.828;37.488;2024-02-26T07:54:57;1.80;99.90
22633;DHT22;11483;55.828;37.488;2024-02-26T07:57:23;1.80;99.90
22633;DHT22;11483;55.828;37.488;2024-02-26T07:59:49;1.80;99.90
22633;DHT22;11483;55.828;37.488;2024-02-26T08:02:16;1.90;99.90
22633;DHT22;11483;55.828;37.488;2024-02-26T08:04:42;1.90;99.90
22633;DHT22;11483;55.828;37.488;2024-02-26T08:07:07;1.90;99.90
22633;DHT22;11483;55.828;37.488;2024-02-26T08:09:33;1.80;99.90
22633;DHT22;11483;55.828;37.488;2024-02-26T08:11:59;1.60;99.90
22633;DHT22;11483;55.828;37.488;2024-02-26T08:14:25;1.60;99.90
22633;DHT22;11483;55.828;37.488;2024-02-26T08:16:51;1.60;99.90
22633;DHT22;11483;55.828;37.488;2024-02-26T08:19:17;1.60;99.90
22633;DHT22;11483;55.828;37.488;2024-02-26T08:21:43;1.60;99.90
22633;DHT22;11483;55.828;37.488;2024-02-26T08:24:09;1.70;99.90
22633;DHT22;11483;55.828;37.488;2024-02-26T08:26:35;1.70;99.90
22633;DHT22;11483;55.828;37.488;2024-02-26T08:29:01;1.70;99.90
22633;DHT22;11483;55.828;37.488;2024-02-26T08:31:27;1.70;99.90
22633;DHT22;11483;55.828;37.488;2024-02-26T08:33:53;1.80;99.90
22633;DHT22;11483;55.828;37.488;2024-02-26T08:36:19;1.70;99.90
22633;DHT22;11483;55.828;37.488;2024-02-26T08:38:46;1.90;99.90
22633;DHT22;11483;55.828;37.488;2024-02-26T08:41:12;2.10;99.90
22633;DHT22;11483;55.828;37.488;2024-02-26T08:43:38;2.60;99.90
22633;DHT22;11483;55.828;37.488;2024-02-26T08:46:08;2.80;99.90
22633;DHT22;11483;55.828;37.488;2024-02-26T08:48:34;3.00;99.90
22633;DHT22;11483;55.828;37.488;2024-02-26T08:51:04;3.10;99.90
22633;DHT22;11483;55.828;37.488;2024-02-26T08:53:30;3.10;99.90
22633;DHT22;11483;55.828;37.488;2024-02-26T08:55:55;3.40;99.90
22633;DHT22;11483;55.828;37.488;2024-02-26T08:58:21;3.40;99.90
22633;DHT22;11483;55.828;37.488;2024-02-26T09:00:47;3.50;99.90
22633;DHT22;11483;55.828;37.488;2024-02-26T09:03:13;3.60;99.90
22633;DHT22;11483;55.828;37.488;2024-02-26T09:05:39;3.90;99.90
22633;DHT22;11483;55.828;37.488;2024-02-26T09:08:05;3.90;99.90
22633;DHT22;11483;55.828;37.488;2024-02-26T09:10:31;4.20;99.90
22633;DHT22;11483;55.828;37.488;2024-02-26T09:12:58;4.40;99.90
22633;DHT22;11483;55.828;37.488;2024-02-26T09:15:24;4.50;99.90
22633;DHT22;11483;55.828;37.488;2024-02-26T09:17:50;4.80;99.90
22633;DHT22;11483;55.828;37.488;2024-02-26T09:20:17;4.90;99.90
22633;DHT22;11483;55.828;37.488;2024-02-26T09:22:47;5.30;99.90
22633;DHT22;11483;55.828;37.488;2024-02-26T09:25:14;5.40;99.90
22633;DHT22;11483;55.828;37.488;2024-02-26T09:27:42;5.60;99.90
22633;DHT22;11483;55.828;37.488;2024-02-26T09:30:10;5.30;99.90
22633;DHT22;11483;55.828;37.488;2024-02-26T09:32:36;5.00;99.90
22633;DHT22;11483;55.828;37.488;2024-02-26T09:35:02;5.20;99.90
22633;DHT22;11483;55.828;37.488;2024-02-26T09:37:28;5.30;99.90
22633;DHT22;11483;55.828;37.488;2024-02-26T09:39:54;5.40;99.90
22633;DHT22;11483;55.828;37.488;2024-02-26T09:42:20;5.50;99.90
22633;DHT22;11483;55.828;37.488;2024-02-26T09:44:46;5.60;99.90
22633;DHT22;11483;55.828;37.488;2024-02-26T09:47:15;5.90;99.90
22633;DHT22;11483;55.828;37.488;2024-02-26T09:49:47;6.20;99.90
22633;DHT22;11483;55.828;37.488;2024-02-26T09:52:15;6.50;99.90
22633;DHT22;11483;55.828;37.488;2024-02-26T09:54:42;6.60;99.90
22633;DHT22;11483;55.828;37.488;2024-02-26T09:57:13;6.80;99.90
22633;DHT22;11483;55.828;37.488;2024-02-26T09:59:43;6.70;99.90
22633;DHT22;11483;55.828;37.488;2024-02-26T10:02:14;6.50;99.90
22633;DHT22;11483;55.828;37.488;2024-02-26T10:04:42;6.60;99.90
22633;DHT22;11483;55.828;37.488;2024-02-26T10:07:12;7.30;99.90
22633;DHT22;11483;55.828;37.488;2024-02-26T10:09:39;7.90;99.90
22633;DHT22;11483;55.828;37.488;2024-02-26T10:12:08;8.00;99.90
22633;DHT22;11483;55.828;37.488;2024-02-26T10:14:34;8.10;99.90
22633;DHT22;11483;55.828;37.488;2024-02-26T10:17:02;7.80;99.90
22633;DHT22;11483;55.828;37.488;2024-02-26T10:19:29;7.70;99.90
22633;DHT22;11483;55.828;37.488;2024-02-26T10:22:00;7.60;99.90
22633;DHT22;11483;55.828;37.488;2024-02-26T10:24:27;7.10;99.90
22633;DHT22;11483;55.828;37.488;2024-02-26T10:26:54;6.70;99.90
22633;DHT22;11483;55.828;37.488;2024-02-26T10:29:23;6.80;99.90
22633;DHT22;11483;55.828;37.488;2024-02-26T10:31:50;7.00;99.90
22633;DHT22;11483;55.828;37.488;2024-02-26T10:34:16;7.30;99.90
22633;DHT22;11483;55.828;37.488;2024-02-26T10:36:42;7.50;99.90
22633;DHT22;11483;55.828;37.488;2024-02-26T10:39:14;7.90;99.90
22633;DHT22;11483;55.828;37.488;2024-02-26T10:41:41;8.00;99.90
22633;DHT22;11483;55.828;37.488;2024-02-26T10:44:11;7.90;98.90
22633;DHT22;11483;55.828;37.488;2024-02-26T10:46:40;7.00;98.70
22633;DHT22;11483;55.828;37.488;2024-02-26T10:49:15;6.30;99.70
22633;DHT22;11483;55.828;37.488;2024-02-26T10:51:55;5.80;99.90
22633;DHT22;11483;55.828;37.488;2024-02-26T10:54:26;5.60;99.90
22633;DHT22;11483;55.828;37.488;2024-02-26T10:56:56;5.40;99.90
22633;DHT22;11483;55.828;37.488;2024-02-26T10:59:26;5.40;99.90
22633;DHT22;11483;55.828;37.488;2024-02-26T11:01:52;5.40;99.90
22633;DHT22;11483;55.828;37.488;2024-02-26T11:04:18;5.00;99.90
22633;DHT22;11483;55.828;37.488;2024-02-26T11:06:47;4.70;99.90
22633;DHT22;11483;55.828;37.488;2024-02-26T11:09:15;4.40;99.90
22633;DHT22;11483;55.828;37.488;2024-02-26T11:11:42;4.30;99.90
22633;DHT22;11483;55.828;37.488;2024-02-26T11:14:09;4.40;99.90
22633;DHT22;11483;55.828;37.488;2024-02-26T11:16:36;4.60;99.90
22633;DHT22;11483;55.828;37.488;2024-02-26T11:19:03;4.90;99.90
22633;DHT22;11483;55.828;37.488;2024-02-26T11:21:29;4.90;99.90
22633;DHT22;11483;55.828;37.488;2024-02-26T11:24:14;4.90;99.90
22633;DHT22;11483;55.828;37.488;2024-02-26T11:26:45;5.00;99.90
22633;DHT22;11483;55.828;37.488;2024-02-26T11:29:17;5.20;99.90
22633;DHT22;11483;55.828;37.488;2024-02-26T11:31:46;5.80;99.90
22633;DHT22;11483;55.828;37.488;2024-02-26T11:34:12;6.40;99.90
22633;DHT22;11483;55.828;37.488;2024-02-26T11:36:39;7.00;99.90
22633;DHT22;11483;55.828;37.488;2024-02-26T11:39:05;7.70;99.90
22633;DHT22;11483;55.828;37.488;2024-02-26T11:41:32;8.20;99.70
22633;DHT22;11483;55.828;37.488;2024-02-26T11:44:02;8.20;99.40
22633;DHT22;11483;55.828;37.488;2024-02-26T11:46:33;8.30;98.10
22633;DHT22;11483;55.828;37.488;2024-02-26T11:49:29;8.10;97.60
22633;DHT22;11483;55.828;37.488;2024-02-26T11:51:53;7.60;97.80
22633;DHT22;11483;55.828;37.488;2024-02-26T11:54:45;6.80;98.70
22633;DHT22;11483;55.828;37.488;2024-02-26T11:57:24;6.10;99.60
22633;DHT22;11483;55.828;37.488;2024-02-26T12:00:13;5.80;99.90
22633;DHT22;11483;55.828;37.488;2024-02-26T12:05:22;5.20;99.90
22633;DHT22;11483;55.828;37.488;2024-02-26T12:07:59;5.00;99.90
22633;DHT22;11483;55.828;37.488;2024-02-26T12:10:31;4.90;99.90
22633;DHT22;11483;55.828;37.488;2024-02-26T12:13:14;4.60;99.90
22633;DHT22;11483;55.828;37.488;2024-02-26T12:15:57;4.40;99.90
22633;DHT22;11483;55.828;37.488;2024-02-26T12:18:24;4.30;99.90
22633;DHT22;11483;55.828;37.488;2024-02-26T12:21:08;4.30;99.90
22633;DHT22;11483;55.828;37.488;2024-02-26T12:23:38;4.20;99.90
22633;DHT22;11483;55.828;37.488;2024-02-26T12:26:04;4.10;99.90
22633;DHT22;11483;55.828;37.488;2024-02-26T12:28:30;4.20;99.90
22633;DHT22;11483;55.828;37.488;2024-02-26T12:30:56;4.20;99.90
22633;DHT22;11483;55.828;37.488;2024-02-26T12:33:25;4.30;99.90
22633;DHT22;11483;55.828;37.488;2024-02-26T12:35:53;4.20;99.90
22633;DHT22;11483;55.828;37.488;2024-02-26T12:38:19;4.20;99.90
22633;DHT22;11483;55.828;37.488;2024-02-26T12:40:46;4.20;99.90
22633;DHT22;11483;55.828;37.488;2024-02-26T12:43:14;4.30;99.90
22633;DHT22;11483;55.828;37.488;2024-02-26T12:45:40;4.30;99.90
22633;DHT22;11483;55.828;37.488;2024-02-26T12:48:07;4.20;99.90
22633;DHT22;11483;55.828;37.488;2024-02-26T12:50:33;4.00;99.90
22633;DHT22;11483;55.828;37.488;2024-02-26T12:53:00;4.00;99.90
22633;DHT22;11483;55.828;37.488;2024-02-26T12:55:26;4.10;99.90
22633;DHT22;11483;55.828;37.488;2024-02-26T12:57:52;4.10;99.90
22633;DHT22;11483;55.828;37.488;2024-02-26T13:00:22;4.20;99.90
22633;DHT22;11483;55.828;37.488;2024-02-26T13:02:50;4.20;99.90
22633;DHT22;11483;55.828;37.488;2024-02-26T13:05:18;4.10;99.90
22633;DHT22;11483;55.828;37.488;2024-02-26T13:07:46;4.00;99.90
22633;DHT22;11483;55.828;37.488;2024-02-26T13:10:15;3.90;99.90
22633;DHT22;11483;55.828;37.488;2024-02-26T13:12:47;3.80;99.90
22633;DHT22;11483;55.828;37.488;2024-02-26T13:15:19;3.60;99.90
22633;DHT22;11483;55.828;37.488;2024-02-26T13:17:46;3.70;99.90
22633;DHT22;11483;55.828;37.488;2024-02-26T13:20:12;3.70;99.90
22633;DHT22;11483;55.828;37.488;2024-02-26T13:22:40;3.60;99.90
22633;DHT22;11483;55.828;37.488;2024-02-26T13:25:06;3.60;99.90
22633;DHT22;11483;55.828;37.488;2024-02-26T13:27:33;3.50;99.90
22633;DHT22;11483;55.828;37.488;2024-02-26T13:32:38;3.60;99.90
22633;DHT22;11483;55.828;37.488;2024-02-26T13:35:06;3.70;99.90
22633;DHT22;11483;55.828;37.488;2024-02-26T13:37:33;3.80;99.90
22633;DHT22;11483;55.828;37.488;2024-02-26T13:39:59;3.90;99.90
22633;DHT22;11483;55.828;37.488;2024-02-26T13:42:25;4.00;99.90
22633;DHT22;11483;55.828;37.488;2024-02-26T13:44:51;4.00;99.90
22633;DHT22;11483;55.828;37.488;2024-02-26T13:47:17;4.00;99.90
22633;DHT22;11483;55.828;37.488;2024-02-26T13:49:44;4.10;99.90
22633;DHT22;11483;55.828;37.488;2024-02-26T13:52:10;4.00;99.90
22633;DHT22;11483;55.828;37.488;2024-02-26T13:54:35;4.00;99.90
22633;DHT22;11483;55.828;37.488;2024-02-26T13:57:04;3.90;99.90
22633;DHT22;11483;55.828;37.488;2024-02-26T13:59:30;3.80;99.90
22633;DHT22;11483;55.828;37.488;2024-02-26T14:01:56;3.60;99.90
22633;DHT22;11483;55.828;37.488;2024-02-26T14:04:22;3.40;99.90
22633;DHT22;11483;55.828;37.488;2024-02-26T14:06:47;3.50;99.90
22633;DHT22;11483;55.828;37.488;2024-02-26T14:09:13;3.30;99.90
22633;DHT22;11483;55.828;37.488;2024-02-26T14:11:48;3.10;99.90
22633;DHT22;11483;55.828;37.488;2024-02-26T14:14:13;2.90;99.90
22633;DHT22;11483;55.828;37.488;2024-02-26T14:16:40;2.90;99.90
22633;DHT22;11483;55.828;37.488;2024-02-26T14:19:06;2.90;99.90
22633;DHT22;11483;55.828;37.488;2024-02-26T14:21:32;3.10;99.90
22633;DHT22;11483;55.828;37.488;2024-02-26T14:23:58;3.10;99.90
22633;DHT22;11483;55.828;37.488;2024-02-26T14:26:24;3.10;99.90
22633;DHT22;11483;55.828;37.488;2024-02-26T14:28:50;3.20;99.90
22633;DHT22;11483;55.828;37.488;2024-02-26T14:31:19;3.10;99.90
22633;DHT22;11483;55.828;37.488;2024-02-26T14:33:45;2.90;99.40
22633;DHT22;11483;55.828;37.488;2024-02-26T14:36:11;2.70;99.80
22633;DHT22;11483;55.828;37.488;2024-02-26T14:38:38;2.60;98.40
22633;DHT22;11483;55.828;37.488;2024-02-26T14:41:05;2.40;98.50
22633;DHT22;11483;55.828;37.488;2024-02-26T14:43:31;2.20;98.80
22633;DHT22;11483;55.828;37.488;2024-02-26T14:45:58;2.10;98.70
22633;DHT22;11483;55.828;37.488;2024-02-26T14:48:24;2.00;98.80
22633;DHT22;11483;55.828;37.488;2024-02-26T14:50:50;1.90;98.80
22633;DHT22;11483;55.828;37.488;2024-02-26T14:53:17;1.80;99.00
22633;DHT22;11483;55.828;37.488;2024-02-26T14:55:43;1.80;98.90
22633;DHT22;11483;55.828;37.488;2024-02-26T14:58:10;1.70;98.70
22633;DHT22;11483;55.828;37.488;2024-02-26T15:00:39;1.60;98.60
22633;DHT22;11483;55.828;37.488;2024-02-26T15:03:05;1.60;98.30
22633;DHT22;11483;55.828;37.488;2024-02-26T15:05:32;1.50;98.50
22633;DHT22;11483;55.828;37.488;2024-02-26T15:07:58;1.50;98.90
22633;DHT22;11483;55.828;37.488;2024-02-26T15:10:25;1.40;98.90
22633;DHT22;11483;55.828;37.488;2024-02-26T15:12:51;1.30;99.00
22633;DHT22;11483;55.828;37.488;2024-02-26T15:15:23;1.20;99.30
22633;DHT22;11483;55.828;37.488;2024-02-26T15:17:49;1.20;99.60
22633;DHT22;11483;55.828;37.488;2024-02-26T15:20:15;1.10;99.80
22633;DHT22;11483;55.828;37.488;2024-02-26T15:22:41;1.10;99.60
22633;DHT22;11483;55.828;37.488;2024-02-26T15:25:08;1.00;99.80
22633;DHT22;11483;55.828;37.488;2024-02-26T15:27:34;0.90;99.90
22633;DHT22;11483;55.828;37.488;2024-02-26T15:30:01;0.90;99.90
22633;DHT22;11483;55.828;37.488;2024-02-26T15:32:27;0.90;99.90
22633;DHT22;11483;55.828;37.488;2024-02-26T15:34:53;0.80;99.90
22633;DHT22;11483;55.828;37.488;2024-02-26T15:37:19;0.80;99.90